sensor_id;sensor_type;location;lat;lon;timestamp;P1;P2;P0
47810;PMS5003;33575;52.600;7.318;2023-04-06T00:01:33;22;22;
47810;PMS5003;33575;52.600;7.318;2023-04-06T00:04:03;27;24;
47810;PMS5003;33575;52.600;7.318;2023-04-06T00:06:34;24;24;
47810;PMS5003;33575;52.600;7.318;2023-04-06T00:09:04;23;22;
47810;PMS5003;33575;52.600;7.318;2023-04-06T00:11:35;21;21;
47810;PMS5003;33575;52.600;7.318;2023-04-06T00:14:05;23;22;
47810;PMS5003;33575;52.600;7.318;2023-04-06T00:16:35;26;23;
47810;PMS5003;33575;52.600;7.318;2023-04-06T00:19:05;26;22;
47810;PMS5003;33575;52.600;7.318;2023-04-06T00:21:36;22;22;
47810;PMS5003;33575;52.600;7.318;2023-04-06T00:24:06;24;22;
47810;PMS5003;33575;52.600;7.318;2023-04-06T00:26:37;23;22;
47810;PMS5003;33575;52.600;7.318;2023-04-06T00:29:08;22;22;
47810;PMS5003;33575;52.600;7.318;2023-04-06T00:31:37;23;21;
47810;PMS5003;33575;52.600;7.318;2023-04-06T00:34:09;22;21;
47810;PMS5003;33575;52.600;7.318;2023-04-06T00:36:38;24;23;
47810;PMS5003;33575;52.600;7.318;2023-04-06T00:39:09;23;20;
47810;PMS5003;33575;52.600;7.318;2023-04-06T00:41:39;22;21;
47810;PMS5003;33575;52.600;7.318;2023-04-06T00:44:10;21;20;
47810;PMS5003;33575;52.600;7.318;2023-04-06T00:46:40;20;19;
47810;PMS5003;33575;52.600;7.318;2023-04-06T00:49:10;22;21;
47810;PMS5003;33575;52.600;7.318;2023-04-06T00:51:41;23;23;
47810;PMS5003;33575;52.600;7.318;2023-04-06T00:54:11;21;21;
47810;PMS5003;33575;52.600;7.318;2023-04-06T00:56:41;21;20;
47810;PMS5003;33575;52.600;7.318;2023-04-06T00:59:12;23;22;
47810;PMS5003;33575;52.600;7.318;2023-04-06T01:01:43;23;22;
47810;PMS5003;33575;52.600;7.318;2023-04-06T01:04:13;24;23;
47810;PMS5003;33575;52.600;7.318;2023-04-06T01:06:43;25;24;
47810;PMS5003;33575;52.600;7.318;2023-04-06T01:09:13;24;22;
47810;PMS5003;33575;52.600;7.318;2023-04-06T01:11:44;20;19;
47810;PMS5003;33575;52.600;7.318;2023-04-06T01:14:14;25;25;
47810;PMS5003;33575;52.600;7.318;2023-04-06T01:16:44;26;25;
47810;PMS5003;33575;52.600;7.318;2023-04-06T01:19:15;26;25;
47810;PMS5003;33575;52.600;7.318;2023-04-06T01:21:46;30;30;
47810;PMS5003;33575;52.600;7.318;2023-04-06T01:24:16;26;26;
47810;PMS5003;33575;52.600;7.318;2023-04-06T01:26:46;25;24;
47810;PMS5003;33575;52.600;7.318;2023-04-06T01:29:16;27;26;
47810;PMS5003;33575;52.600;7.318;2023-04-06T01:31:47;30;28;
47810;PMS5003;33575;52.600;7.318;2023-04-06T01:34:17;28;24;
47810;PMS5003;33575;52.600;7.318;2023-04-06T01:36:47;25;24;
47810;PMS5003;33575;52.600;7.318;2023-04-06T01:39:18;29;28;
47810;PMS5003;33575;52.600;7.318;2023-04-06T01:41:48;33;30;
47810;PMS5003;33575;52.600;7.318;2023-04-06T01:44:18;28;24;
47810;PMS5003;33575;52.600;7.318;2023-04-06T01:46:49;34;32;
47810;PMS5003;33575;52.600;7.318;2023-04-06T01:49:20;26;26;
47810;PMS5003;33575;52.600;7.318;2023-04-06T01:51:50;36;34;
47810;PMS5003;33575;52.600;7.318;2023-04-06T01:54:21;26;25;
47810;PMS5003;33575;52.600;7.318;2023-04-06T01:56:51;27;27;
47810;PMS5003;33575;52.600;7.318;2023-04-06T01:59:21;27;24;
47810;PMS5003;33575;52.600;7.318;2023-04-06T02:01:52;32;29;
47810;PMS5003;33575;52.600;7.318;2023-04-06T02:04:22;25;24;
47810;PMS5003;33575;52.600;7.318;2023-04-06T02:06:53;28;28;
47810;PMS5003;33575;52.600;7.318;2023-04-06T02:09:23;24;23;
47810;PMS5003;33575;52.600;7.318;2023-04-06T02:11:53;26;25;
47810;PMS5003;33575;52.600;7.318;2023-04-06T02:14:25;30;28;
47810;PMS5003;33575;52.600;7.318;2023-04-06T02:16:54;28;26;
47810;PMS5003;33575;52.600;7.318;2023-04-06T02:19:25;29;26;
47810;PMS5003;33575;52.600;7.318;2023-04-06T02:21:55;27;26;
47810;PMS5003;33575;52.600;7.318;2023-04-06T02:24:26;27;26;
47810;PMS5003;33575;52.600;7.318;2023-04-06T02:26:56;26;25;
47810;PMS5003;33575;52.600;7.318;2023-04-06T02:29:27;29;28;
47810;PMS5003;33575;52.600;7.318;2023-04-06T02:31:57;24;24;
47810;PMS5003;33575;52.600;7.318;2023-04-06T02:34:27;23;23;
47810;PMS5003;33575;52.600;7.318;2023-04-06T02:36:57;27;24;
47810;PMS5003;33575;52.600;7.318;2023-04-06T02:39:27;22;22;
47810;PMS5003;33575;52.600;7.318;2023-04-06T02:41:58;25;24;
47810;PMS5003;33575;52.600;7.318;2023-04-06T02:44:29;27;26;
47810;PMS5003;33575;52.600;7.318;2023-04-06T02:46:59;23;23;
47810;PMS5003;33575;52.600;7.318;2023-04-06T02:49:30;22;22;
47810;PMS5003;33575;52.600;7.318;2023-04-06T02:52:00;22;21;
47810;PMS5003;33575;52.600;7.318;2023-04-06T02:54:31;23;22;
47810;PMS5003;33575;52.600;7.318;2023-04-06T02:57:01;28;27;
47810;PMS5003;33575;52.600;7.318;2023-04-06T02:59:31;23;22;
47810;PMS5003;33575;52.600;7.318;2023-04-06T03:02:01;23;23;
47810;PMS5003;33575;52.600;7.318;2023-04-06T03:04:32;23;23;
47810;PMS5003;33575;52.600;7.318;2023-04-06T03:07:03;24;23;
47810;PMS5003;33575;52.600;7.318;2023-04-06T03:09:33;23;23;
47810;PMS5003;33575;52.600;7.318;2023-04-06T03:12:03;25;25;
47810;PMS5003;33575;52.600;7.318;2023-04-06T03:14:33;23;23;
47810;PMS5003;33575;52.600;7.318;2023-04-06T03:17:04;25;25;
47810;PMS5003;33575;52.600;7.318;2023-04-06T03:19:35;25;25;
47810;PMS5003;33575;52.600;7.318;2023-04-06T03:22:05;32;29;
47810;PMS5003;33575;52.600;7.318;2023-04-06T03:24:36;23;23;
47810;PMS5003;33575;52.600;7.318;2023-04-06T03:27:06;36;33;
47810;PMS5003;33575;52.600;7.318;2023-04-06T03:29:36;39;37;
47810;PMS5003;33575;52.600;7.318;2023-04-06T03:32:09;42;35;
47810;PMS5003;33575;52.600;7.318;2023-04-06T03:34:37;37;35;
47810;PMS5003;33575;52.600;7.318;2023-04-06T03:37:11;26;26;
47810;PMS5003;33575;52.600;7.318;2023-04-06T03:39:38;25;24;
47810;PMS5003;33575;52.600;7.318;2023-04-06T03:42:09;22;22;
47810;PMS5003;33575;52.600;7.318;2023-04-06T03:44:39;21;20;
47810;PMS5003;33575;52.600;7.318;2023-04-06T03:47:10;22;22;
47810;PMS5003;33575;52.600;7.318;2023-04-06T03:49:41;26;26;
47810;PMS5003;33575;52.600;7.318;2023-04-06T03:52:10;26;25;
47810;PMS5003;33575;52.600;7.318;2023-04-06T03:54:41;26;25;
47810;PMS5003;33575;52.600;7.318;2023-04-06T03:57:11;23;23;
47810;PMS5003;33575;52.600;7.318;2023-04-06T03:59:41;25;24;
47810;PMS5003;33575;52.600;7.318;2023-04-06T04:02:11;30;26;
47810;PMS5003;33575;52.600;7.318;2023-04-06T04:04:41;30;28;
47810;PMS5003;33575;52.600;7.318;2023-04-06T04:07:12;24;24;
47810;PMS5003;33575;52.600;7.318;2023-04-06T04:09:42;34;34;
47810;PMS5003;33575;52.600;7.318;2023-04-06T04:12:13;24;24;
47810;PMS5003;33575;52.600;7.318;2023-04-06T04:14:43;28;25;
47810;PMS5003;33575;52.600;7.318;2023-04-06T04:17:14;30;27;
47810;PMS5003;33575;52.600;7.318;2023-04-06T04:19:44;29;27;
47810;PMS5003;33575;52.600;7.318;2023-04-06T04:22:14;27;25;
47810;PMS5003;33575;52.600;7.318;2023-04-06T04:24:45;25;25;
47810;PMS5003;33575;52.600;7.318;2023-04-06T04:27:15;23;22;
47810;PMS5003;33575;52.600;7.318;2023-04-06T04:29:46;26;25;
47810;PMS5003;33575;52.600;7.318;2023-04-06T04:32:17;30;30;
47810;PMS5003;33575;52.600;7.318;2023-04-06T04:34:47;24;24;
47810;PMS5003;33575;52.600;7.318;2023-04-06T04:37:17;26;24;
47810;PMS5003;33575;52.600;7.318;2023-04-06T04:39:48;26;25;
47810;PMS5003;33575;52.600;7.318;2023-04-06T04:42:18;25;24;
47810;PMS5003;33575;52.600;7.318;2023-04-06T04:44:48;31;29;
47810;PMS5003;33575;52.600;7.318;2023-04-06T04:47:18;27;25;
47810;PMS5003;33575;52.600;7.318;2023-04-06T04:49:49;29;27;
47810;PMS5003;33575;52.600;7.318;2023-04-06T04:52:19;27;27;
47810;PMS5003;33575;52.600;7.318;2023-04-06T04:54:50;31;29;
47810;PMS5003;33575;52.600;7.318;2023-04-06T04:57:20;26;26;
47810;PMS5003;33575;52.600;7.318;2023-04-06T04:59:50;23;22;
47810;PMS5003;33575;52.600;7.318;2023-04-06T05:02:20;27;26;
47810;PMS5003;33575;52.600;7.318;2023-04-06T05:04:51;26;26;
47810;PMS5003;33575;52.600;7.318;2023-04-06T05:07:21;29;23;
47810;PMS5003;33575;52.600;7.318;2023-04-06T05:09:51;28;24;
47810;PMS5003;33575;52.600;7.318;2023-04-06T05:12:23;26;26;
47810;PMS5003;33575;52.600;7.318;2023-04-06T05:14:52;30;29;
47810;PMS5003;33575;52.600;7.318;2023-04-06T05:17:23;30;29;
47810;PMS5003;33575;52.600;7.318;2023-04-06T05:19:54;27;25;
47810;PMS5003;33575;52.600;7.318;2023-04-06T05:22:24;32;31;
47810;PMS5003;33575;52.600;7.318;2023-04-06T05:24:54;30;30;
47810;PMS5003;33575;52.600;7.318;2023-04-06T05:27:25;23;22;
47810;PMS5003;33575;52.600;7.318;2023-04-06T05:29:58;26;25;
47810;PMS5003;33575;52.600;7.318;2023-04-06T05:32:26;27;26;
47810;PMS5003;33575;52.600;7.318;2023-04-06T05:34:56;30;27;
47810;PMS5003;33575;52.600;7.318;2023-04-06T05:37:26;31;30;
47810;PMS5003;33575;52.600;7.318;2023-04-06T05:39:57;28;27;
47810;PMS5003;33575;52.600;7.318;2023-04-06T05:42:27;26;26;
47810;PMS5003;33575;52.600;7.318;2023-04-06T05:44:58;30;28;
47810;PMS5003;33575;52.600;7.318;2023-04-06T05:47:28;26;26;
47810;PMS5003;33575;52.600;7.318;2023-04-06T05:49:59;26;26;
47810;PMS5003;33575;52.600;7.318;2023-04-06T05:52:29;29;27;
47810;PMS5003;33575;52.600;7.318;2023-04-06T05:54:59;31;29;
47810;PMS5003;33575;52.600;7.318;2023-04-06T05:57:29;31;30;
47810;PMS5003;33575;52.600;7.318;2023-04-06T05:59:59;30;29;
47810;PMS5003;33575;52.600;7.318;2023-04-06T06:02:30;33;32;
47810;PMS5003;33575;52.600;7.318;2023-04-06T06:05:01;31;29;
47810;PMS5003;33575;52.600;7.318;2023-04-06T06:07:31;37;35;
47810;PMS5003;33575;52.600;7.318;2023-04-06T06:10:01;34;32;
47810;PMS5003;33575;52.600;7.318;2023-04-06T06:12:31;34;33;
47810;PMS5003;33575;52.600;7.318;2023-04-06T06:15:03;30;30;
47810;PMS5003;33575;52.600;7.318;2023-04-06T06:17:33;39;35;
47810;PMS5003;33575;52.600;7.318;2023-04-06T06:20:04;37;35;
47810;PMS5003;33575;52.600;7.318;2023-04-06T06:22:33;35;34;
47810;PMS5003;33575;52.600;7.318;2023-04-06T06:25:04;28;28;
47810;PMS5003;33575;52.600;7.318;2023-04-06T06:27:34;33;33;
47810;PMS5003;33575;52.600;7.318;2023-04-06T06:30:05;32;31;
47810;PMS5003;33575;52.600;7.318;2023-04-06T06:32:36;31;31;
47810;PMS5003;33575;52.600;7.318;2023-04-06T06:35:06;31;30;
47810;PMS5003;33575;52.600;7.318;2023-04-06T06:37:36;32;31;
47810;PMS5003;33575;52.600;7.318;2023-04-06T06:40:06;35;35;
47810;PMS5003;33575;52.600;7.318;2023-04-06T06:42:36;38;33;
47810;PMS5003;33575;52.600;7.318;2023-04-06T06:45:07;38;34;
47810;PMS5003;33575;52.600;7.318;2023-04-06T06:47:37;37;32;
47810;PMS5003;33575;52.600;7.318;2023-04-06T06:50:08;164;94;
47810;PMS5003;33575;52.600;7.318;2023-04-06T06:52:38;41;40;
47810;PMS5003;33575;52.600;7.318;2023-04-06T06:55:09;35;35;
47810;PMS5003;33575;52.600;7.318;2023-04-06T06:57:39;39;37;
47810;PMS5003;33575;52.600;7.318;2023-04-06T07:00:13;38;37;
47810;PMS5003;33575;52.600;7.318;2023-04-06T07:02:40;49;45;
47810;PMS5003;33575;52.600;7.318;2023-04-06T07:05:15;40;37;
47810;PMS5003;33575;52.600;7.318;2023-04-06T07:07:41;40;38;
47810;PMS5003;33575;52.600;7.318;2023-04-06T07:10:11;39;38;
47810;PMS5003;33575;52.600;7.318;2023-04-06T07:12:41;39;38;
47810;PMS5003;33575;52.600;7.318;2023-04-06T07:15:11;40;38;
47810;PMS5003;33575;52.600;7.318;2023-04-06T07:17:42;37;37;
47810;PMS5003;33575;52.600;7.318;2023-04-06T07:20:13;35;34;
47810;PMS5003;33575;52.600;7.318;2023-04-06T07:22:43;40;39;
47810;PMS5003;33575;52.600;7.318;2023-04-06T07:25:13;41;39;
47810;PMS5003;33575;52.600;7.318;2023-04-06T07:27:43;41;40;
47810;PMS5003;33575;52.600;7.318;2023-04-06T07:30:14;43;42;
47810;PMS5003;33575;52.600;7.318;2023-04-06T07:32:45;43;39;
47810;PMS5003;33575;52.600;7.318;2023-04-06T07:35:15;45;39;
47810;PMS5003;33575;52.600;7.318;2023-04-06T07:37:45;43;40;
47810;PMS5003;33575;52.600;7.318;2023-04-06T07:40:16;42;41;
47810;PMS5003;33575;52.600;7.318;2023-04-06T07:42:47;42;40;
47810;PMS5003;33575;52.600;7.318;2023-04-06T07:45:17;42;37;
47810;PMS5003;33575;52.600;7.318;2023-04-06T07:47:47;38;32;
47810;PMS5003;33575;52.600;7.318;2023-04-06T07:50:17;46;43;
47810;PMS5003;33575;52.600;7.318;2023-04-06T07:52:47;40;37;
47810;PMS5003;33575;52.600;7.318;2023-04-06T07:55:17;42;40;
47810;PMS5003;33575;52.600;7.318;2023-04-06T07:57:48;51;49;
47810;PMS5003;33575;52.600;7.318;2023-04-06T08:00:18;44;41;
47810;PMS5003;33575;52.600;7.318;2023-04-06T08:02:49;47;45;
47810;PMS5003;33575;52.600;7.318;2023-04-06T08:05:19;43;42;
47810;PMS5003;33575;52.600;7.318;2023-04-06T08:07:50;46;43;
47810;PMS5003;33575;52.600;7.318;2023-04-06T08:10:20;48;42;
47810;PMS5003;33575;52.600;7.318;2023-04-06T08:12:51;50;48;
47810;PMS5003;33575;52.600;7.318;2023-04-06T08:15:21;46;43;
47810;PMS5003;33575;52.600;7.318;2023-04-06T08:17:52;50;46;
47810;PMS5003;33575;52.600;7.318;2023-04-06T08:20:22;59;56;
47810;PMS5003;33575;52.600;7.318;2023-04-06T08:22:54;43;39;
47810;PMS5003;33575;52.600;7.318;2023-04-06T08:25:23;43;41;
47810;PMS5003;33575;52.600;7.318;2023-04-06T08:27:53;44;38;
47810;PMS5003;33575;52.600;7.318;2023-04-06T08:30:23;42;39;
47810;PMS5003;33575;52.600;7.318;2023-04-06T08:32:53;41;40;
47810;PMS5003;33575;52.600;7.318;2023-04-06T08:35:24;38;36;
47810;PMS5003;33575;52.600;7.318;2023-04-06T08:37:54;40;40;
47810;PMS5003;33575;52.600;7.318;2023-04-06T08:40:24;40;36;
47810;PMS5003;33575;52.600;7.318;2023-04-06T08:42:55;36;34;
47810;PMS5003;33575;52.600;7.318;2023-04-06T08:45:24;36;33;
47810;PMS5003;33575;52.600;7.318;2023-04-06T08:47:55;38;35;
47810;PMS5003;33575;52.600;7.318;2023-04-06T08:50:25;40;38;
47810;PMS5003;33575;52.600;7.318;2023-04-06T08:52:56;39;39;
47810;PMS5003;33575;52.600;7.318;2023-04-06T08:55:26;48;46;
47810;PMS5003;33575;52.600;7.318;2023-04-06T08:57:57;34;33;
47810;PMS5003;33575;52.600;7.318;2023-04-06T09:00:27;36;36;
47810;PMS5003;33575;52.600;7.318;2023-04-06T09:02:57;41;40;
47810;PMS5003;33575;52.600;7.318;2023-04-06T09:05:27;44;40;
47810;PMS5003;33575;52.600;7.318;2023-04-06T09:07:58;39;35;
47810;PMS5003;33575;52.600;7.318;2023-04-06T09:10:29;35;34;
47810;PMS5003;33575;52.600;7.318;2023-04-06T09:13:04;44;41;
47810;PMS5003;33575;52.600;7.318;2023-04-06T09:15:30;36;33;
47810;PMS5003;33575;52.600;7.318;2023-04-06T09:18:01;36;34;
47810;PMS5003;33575;52.600;7.318;2023-04-06T09:20:31;41;41;
47810;PMS5003;33575;52.600;7.318;2023-04-06T09:23:01;35;35;
47810;PMS5003;33575;52.600;7.318;2023-04-06T09:25:32;45;43;
47810;PMS5003;33575;52.600;7.318;2023-04-06T09:28:03;36;34;
47810;PMS5003;33575;52.600;7.318;2023-04-06T09:30:33;37;35;
47810;PMS5003;33575;52.600;7.318;2023-04-06T09:33:03;33;32;
47810;PMS5003;33575;52.600;7.318;2023-04-06T09:35:34;44;42;
47810;PMS5003;33575;52.600;7.318;2023-04-06T09:40:34;40;39;
47810;PMS5003;33575;52.600;7.318;2023-04-06T09:43:05;39;37;
47810;PMS5003;33575;52.600;7.318;2023-04-06T09:45:36;39;38;
47810;PMS5003;33575;52.600;7.318;2023-04-06T09:48:06;36;36;
47810;PMS5003;33575;52.600;7.318;2023-04-06T09:50:37;36;36;
47810;PMS5003;33575;52.600;7.318;2023-04-06T09:53:07;39;38;
47810;PMS5003;33575;52.600;7.318;2023-04-06T09:55:39;38;38;
47810;PMS5003;33575;52.600;7.318;2023-04-06T09:58:09;44;40;
47810;PMS5003;33575;52.600;7.318;2023-04-06T10:00:40;37;35;
47810;PMS5003;33575;52.600;7.318;2023-04-06T10:03:12;45;41;
47810;PMS5003;33575;52.600;7.318;2023-04-06T10:05:42;42;36;
47810;PMS5003;33575;52.600;7.318;2023-04-06T10:08:09;44;42;
47810;PMS5003;33575;52.600;7.318;2023-04-06T10:10:39;46;41;
47810;PMS5003;33575;52.600;7.318;2023-04-06T10:13:10;54;51;
47810;PMS5003;33575;52.600;7.318;2023-04-06T10:15:40;51;48;
47810;PMS5003;33575;52.600;7.318;2023-04-06T10:18:11;42;42;
47810;PMS5003;33575;52.600;7.318;2023-04-06T10:20:43;47;46;
47810;PMS5003;33575;52.600;7.318;2023-04-06T10:23:13;39;37;
47810;PMS5003;33575;52.600;7.318;2023-04-06T10:28:14;56;50;
47810;PMS5003;33575;52.600;7.318;2023-04-06T10:30:44;60;56;
47810;PMS5003;33575;52.600;7.318;2023-04-06T10:33:15;49;48;
47810;PMS5003;33575;52.600;7.318;2023-04-06T10:35:45;54;51;
47810;PMS5003;33575;52.600;7.318;2023-04-06T10:38:16;53;51;
47810;PMS5003;33575;52.600;7.318;2023-04-06T10:40:46;54;51;
47810;PMS5003;33575;52.600;7.318;2023-04-06T10:43:18;50;48;
47810;PMS5003;33575;52.600;7.318;2023-04-06T10:48:18;57;52;
47810;PMS5003;33575;52.600;7.318;2023-04-06T10:50:48;56;52;
47810;PMS5003;33575;52.600;7.318;2023-04-06T10:53:22;53;51;
47810;PMS5003;33575;52.600;7.318;2023-04-06T10:55:49;59;54;
47810;PMS5003;33575;52.600;7.318;2023-04-06T10:58:19;52;51;
47810;PMS5003;33575;52.600;7.318;2023-04-06T11:00:52;51;49;
47810;PMS5003;33575;52.600;7.318;2023-04-06T11:03:20;54;53;
47810;PMS5003;33575;52.600;7.318;2023-04-06T11:05:51;50;44;
47810;PMS5003;33575;52.600;7.318;2023-04-06T11:08:22;49;47;
47810;PMS5003;33575;52.600;7.318;2023-04-06T11:10:52;50;48;
47810;PMS5003;33575;52.600;7.318;2023-04-06T11:13:22;48;46;
47810;PMS5003;33575;52.600;7.318;2023-04-06T11:15:52;49;48;
47810;PMS5003;33575;52.600;7.318;2023-04-06T11:18:22;61;57;
47810;PMS5003;33575;52.600;7.318;2023-04-06T11:20:53;52;48;
47810;PMS5003;33575;52.600;7.318;2023-04-06T11:23:24;58;55;
47810;PMS5003;33575;52.600;7.318;2023-04-06T11:25:54;49;46;
47810;PMS5003;33575;52.600;7.318;2023-04-06T11:28:25;47;45;
47810;PMS5003;33575;52.600;7.318;2023-04-06T11:30:56;51;50;
47810;PMS5003;33575;52.600;7.318;2023-04-06T11:33:26;48;46;
47810;PMS5003;33575;52.600;7.318;2023-04-06T11:35:56;48;44;
47810;PMS5003;33575;52.600;7.318;2023-04-06T11:38:26;50;48;
47810;PMS5003;33575;52.600;7.318;2023-04-06T11:40:56;52;45;
47810;PMS5003;33575;52.600;7.318;2023-04-06T11:43:27;50;49;
47810;PMS5003;33575;52.600;7.318;2023-04-06T11:45:59;43;42;
47810;PMS5003;33575;52.600;7.318;2023-04-06T11:48:28;49;48;
47810;PMS5003;33575;52.600;7.318;2023-04-06T11:50:58;51;49;
47810;PMS5003;33575;52.600;7.318;2023-04-06T11:53:29;57;56;
47810;PMS5003;33575;52.600;7.318;2023-04-06T11:55:59;48;45;
47810;PMS5003;33575;52.600;7.318;2023-04-06T11:58:30;51;49;
47810;PMS5003;33575;52.600;7.318;2023-04-06T12:01:04;50;45;
47810;PMS5003;33575;52.600;7.318;2023-04-06T12:03:31;56;48;
47810;PMS5003;33575;52.600;7.318;2023-04-06T12:06:01;42;41;
47810;PMS5003;33575;52.600;7.318;2023-04-06T12:08:31;55;54;
47810;PMS5003;33575;52.600;7.318;2023-04-06T12:11:02;45;44;
47810;PMS5003;33575;52.600;7.318;2023-04-06T12:13:33;51;46;
47810;PMS5003;33575;52.600;7.318;2023-04-06T12:16:03;43;41;
47810;PMS5003;33575;52.600;7.318;2023-04-06T12:18:33;48;45;
47810;PMS5003;33575;52.600;7.318;2023-04-06T12:21:04;48;44;
47810;PMS5003;33575;52.600;7.318;2023-04-06T12:23:35;48;45;
47810;PMS5003;33575;52.600;7.318;2023-04-06T12:26:05;47;46;
47810;PMS5003;33575;52.600;7.318;2023-04-06T12:28:35;52;50;
47810;PMS5003;33575;52.600;7.318;2023-04-06T12:31:06;51;48;
47810;PMS5003;33575;52.600;7.318;2023-04-06T12:33:37;57;51;
47810;PMS5003;33575;52.600;7.318;2023-04-06T12:36:11;51;48;
47810;PMS5003;33575;52.600;7.318;2023-04-06T12:38:37;50;45;
47810;PMS5003;33575;52.600;7.318;2023-04-06T12:41:08;53;51;
47810;PMS5003;33575;52.600;7.318;2023-04-06T12:43:39;52;50;
47810;PMS5003;33575;52.600;7.318;2023-04-06T12:46:09;47;45;
47810;PMS5003;33575;52.600;7.318;2023-04-06T12:48:39;53;48;
47810;PMS5003;33575;52.600;7.318;2023-04-06T12:51:10;54;51;
47810;PMS5003;33575;52.600;7.318;2023-04-06T12:53:41;49;48;
47810;PMS5003;33575;52.600;7.318;2023-04-06T12:56:11;53;49;
47810;PMS5003;33575;52.600;7.318;2023-04-06T12:58:42;43;42;
47810;PMS5003;33575;52.600;7.318;2023-04-06T13:01:12;46;45;
47810;PMS5003;33575;52.600;7.318;2023-04-06T13:03:42;46;46;
47810;PMS5003;33575;52.600;7.318;2023-04-06T13:06:12;57;51;
47810;PMS5003;33575;52.600;7.318;2023-04-06T13:08:43;47;46;
47810;PMS5003;33575;52.600;7.318;2023-04-06T13:11:13;53;47;
47810;PMS5003;33575;52.600;7.318;2023-04-06T13:13:44;49;45;
47810;PMS5003;33575;52.600;7.318;2023-04-06T13:16:14;54;50;
47810;PMS5003;33575;52.600;7.318;2023-04-06T13:18:45;51;48;
47810;PMS5003;33575;52.600;7.318;2023-04-06T13:21:15;51;49;
47810;PMS5003;33575;52.600;7.318;2023-04-06T13:23:46;50;46;
47810;PMS5003;33575;52.600;7.318;2023-04-06T13:26:16;51;48;
47810;PMS5003;33575;52.600;7.318;2023-04-06T13:28:47;57;51;
47810;PMS5003;33575;52.600;7.318;2023-04-06T13:31:17;53;48;
47810;PMS5003;33575;52.600;7.318;2023-04-06T13:33:48;55;53;
47810;PMS5003;33575;52.600;7.318;2023-04-06T13:36:18;58;54;
47810;PMS5003;33575;52.600;7.318;2023-04-06T13:38:49;50;48;
47810;PMS5003;33575;52.600;7.318;2023-04-06T13:41:19;53;50;
47810;PMS5003;33575;52.600;7.318;2023-04-06T13:43:49;53;46;
47810;PMS5003;33575;52.600;7.318;2023-04-06T13:46:20;56;53;
47810;PMS5003;33575;52.600;7.318;2023-04-06T13:48:51;58;51;
47810;PMS5003;33575;52.600;7.318;2023-04-06T13:51:21;54;52;
47810;PMS5003;33575;52.600;7.318;2023-04-06T13:53:52;52;49;
47810;PMS5003;33575;52.600;7.318;2023-04-06T13:56:22;58;54;
47810;PMS5003;33575;52.600;7.318;2023-04-06T13:58:53;52;49;
47810;PMS5003;33575;52.600;7.318;2023-04-06T14:01:23;53;48;
47810;PMS5003;33575;52.600;7.318;2023-04-06T14:03:54;51;49;
47810;PMS5003;33575;52.600;7.318;2023-04-06T14:06:27;52;51;
47810;PMS5003;33575;52.600;7.318;2023-04-06T14:08:54;50;47;
47810;PMS5003;33575;52.600;7.318;2023-04-06T14:11:25;52;49;
47810;PMS5003;33575;52.600;7.318;2023-04-06T14:13:59;57;54;
47810;PMS5003;33575;52.600;7.318;2023-04-06T14:16:26;55;50;
47810;PMS5003;33575;52.600;7.318;2023-04-06T14:18:56;52;46;
47810;PMS5003;33575;52.600;7.318;2023-04-06T14:21:27;56;49;
47810;PMS5003;33575;52.600;7.318;2023-04-06T14:24:00;53;46;
47810;PMS5003;33575;52.600;7.318;2023-04-06T14:26:28;50;46;
47810;PMS5003;33575;52.600;7.318;2023-04-06T14:28:58;52;47;
47810;PMS5003;33575;52.600;7.318;2023-04-06T14:31:29;54;47;
47810;PMS5003;33575;52.600;7.318;2023-04-06T14:34:00;52;49;
47810;PMS5003;33575;52.600;7.318;2023-04-06T14:36:31;53;52;
47810;PMS5003;33575;52.600;7.318;2023-04-06T14:39:00;51;47;
47810;PMS5003;33575;52.600;7.318;2023-04-06T14:41:31;55;47;
47810;PMS5003;33575;52.600;7.318;2023-04-06T14:44:02;49;48;
47810;PMS5003;33575;52.600;7.318;2023-04-06T14:46:33;62;54;
47810;PMS5003;33575;52.600;7.318;2023-04-06T14:49:03;53;48;
47810;PMS5003;33575;52.600;7.318;2023-04-06T14:51:33;48;46;
47810;PMS5003;33575;52.600;7.318;2023-04-06T14:54:04;58;51;
47810;PMS5003;33575;52.600;7.318;2023-04-06T14:56:34;55;46;
47810;PMS5003;33575;52.600;7.318;2023-04-06T14:59:04;55;49;
47810;PMS5003;33575;52.600;7.318;2023-04-06T15:01:37;50;44;
47810;PMS5003;33575;52.600;7.318;2023-04-06T15:04:06;56;50;
47810;PMS5003;33575;52.600;7.318;2023-04-06T15:06:36;43;42;
47810;PMS5003;33575;52.600;7.318;2023-04-06T15:09:06;54;52;
47810;PMS5003;33575;52.600;7.318;2023-04-06T15:11:37;49;48;
47810;PMS5003;33575;52.600;7.318;2023-04-06T15:14:08;48;45;
47810;PMS5003;33575;52.600;7.318;2023-04-06T15:16:38;45;38;
47810;PMS5003;33575;52.600;7.318;2023-04-06T15:19:09;56;49;
47810;PMS5003;33575;52.600;7.318;2023-04-06T15:21:39;48;46;
47810;PMS5003;33575;52.600;7.318;2023-04-06T15:24:09;57;51;
47810;PMS5003;33575;52.600;7.318;2023-04-06T15:26:39;51;49;
47810;PMS5003;33575;52.600;7.318;2023-04-06T15:29:10;48;45;
47810;PMS5003;33575;52.600;7.318;2023-04-06T15:31:40;43;38;
47810;PMS5003;33575;52.600;7.318;2023-04-06T15:34:11;44;40;
47810;PMS5003;33575;52.600;7.318;2023-04-06T15:36:41;44;39;
47810;PMS5003;33575;52.600;7.318;2023-04-06T15:39:12;41;39;
47810;PMS5003;33575;52.600;7.318;2023-04-06T15:41:42;35;34;
47810;PMS5003;33575;52.600;7.318;2023-04-06T15:44:12;46;43;
47810;PMS5003;33575;52.600;7.318;2023-04-06T15:46:43;45;43;
47810;PMS5003;33575;52.600;7.318;2023-04-06T15:49:14;41;36;
47810;PMS5003;33575;52.600;7.318;2023-04-06T15:51:46;44;42;
47810;PMS5003;33575;52.600;7.318;2023-04-06T15:54:15;43;42;
47810;PMS5003;33575;52.600;7.318;2023-04-06T15:56:46;37;36;
47810;PMS5003;33575;52.600;7.318;2023-04-06T15:59:17;43;41;
47810;PMS5003;33575;52.600;7.318;2023-04-06T16:01:47;47;43;
47810;PMS5003;33575;52.600;7.318;2023-04-06T16:04:18;41;37;
47810;PMS5003;33575;52.600;7.318;2023-04-06T16:06:48;45;39;
47810;PMS5003;33575;52.600;7.318;2023-04-06T16:09:18;38;38;
47810;PMS5003;33575;52.600;7.318;2023-04-06T16:11:49;38;36;
47810;PMS5003;33575;52.600;7.318;2023-04-06T16:14:19;36;35;
47810;PMS5003;33575;52.600;7.318;2023-04-06T16:16:49;39;36;
47810;PMS5003;33575;52.600;7.318;2023-04-06T16:19:20;41;39;
47810;PMS5003;33575;52.600;7.318;2023-04-06T16:21:50;38;35;
47810;PMS5003;33575;52.600;7.318;2023-04-06T16:24:20;37;35;
47810;PMS5003;33575;52.600;7.318;2023-04-06T16:26:51;37;35;
47810;PMS5003;33575;52.600;7.318;2023-04-06T16:29:21;36;34;
47810;PMS5003;33575;52.600;7.318;2023-04-06T16:31:52;42;39;
47810;PMS5003;33575;52.600;7.318;2023-04-06T16:34:23;34;34;
47810;PMS5003;33575;52.600;7.318;2023-04-06T16:36:53;34;32;
47810;PMS5003;33575;52.600;7.318;2023-04-06T16:39:24;40;38;
47810;PMS5003;33575;52.600;7.318;2023-04-06T16:41:54;36;35;
47810;PMS5003;33575;52.600;7.318;2023-04-06T16:44:25;38;35;
47810;PMS5003;33575;52.600;7.318;2023-04-06T16:46:55;38;35;